Time;durP1;ratioP1;P1;durP2;ratioP2;P2;SDS_P1;SDS_P2;PMS_P1;PMS_P2;Temp;Humidity;BMP_temperature;BMP_pressure;BME280_temperature;BME280_humidity;BME280_pressure;Samples;Min_cycle;Max_cycle;Signal;HPM_P1;HPM_P2
2021/12/29 00:00:15;;;;;;;1.37;1.07;;;;;;;6.42;100.00;95504.75;4939994;28;20248;-87
2021/12/29 00:02:42;;;;;;;2.57;1.50;;;;;;;6.44;100.00;95499.19;4939379;28;20242;-86
2021/12/29 00:05:10;;;;;;;1.90;1.33;;;;;;;6.38;100.00;95505.44;4932572;28;20208;-87
2021/12/29 00:07:37;;;;;;;4.53;1.70;;;;;;;6.34;100.00;95509.59;4943256;28;20289;-87
2021/12/29 00:10:06;;;;;;;1.30;1.10;;;;;;;6.34;100.00;95515.78;4934340;28;20201;-87
2021/12/29 00:12:39;;;;;;;1.20;1.10;;;;;;;6.31;100.00;95526.94;4941193;28;20261;-86
2021/12/29 00:15:09;;;;;;;3.53;1.53;;;;;;;6.27;100.00;95511.53;4943384;28;20261;-86
2021/12/29 00:17:39;;;;;;;1.57;1.10;;;;;;;6.25;100.00;95524.34;4927308;29;20285;-88
2021/12/29 00:20:07;;;;;;;1.60;1.30;;;;;;;6.24;100.00;95498.56;4927979;29;20265;-87
2021/12/29 00:22:34;;;;;;;2.00;1.10;;;;;;;6.19;100.00;95519.88;4921423;29;20201;-87
2021/12/29 00:25:02;;;;;;;1.73;1.37;;;;;;;6.15;100.00;95510.63;4923034;29;20282;-87
2021/12/29 00:27:28;;;;;;;6.40;2.43;;;;;;;6.19;100.00;95514.53;4935675;28;20214;-87
2021/12/29 00:29:56;;;;;;;3.20;1.50;;;;;;;6.20;100.00;95506.25;4923630;28;20210;-88
2021/12/29 00:32:43;;;;;;;3.90;1.20;;;;;;;6.22;100.00;95508.69;4942015;28;20220;-87
2021/12/29 00:35:29;;;;;;;2.53;1.40;;;;;;;6.17;100.00;95504.03;4941166;28;20233;-86
2021/12/29 00:38:16;;;;;;;2.90;1.80;;;;;;;6.16;100.00;95523.81;4937202;28;20225;-88
2021/12/29 00:41:01;;;;;;;2.17;1.50;;;;;;;6.11;100.00;95512.13;4940815;29;20240;-87
2021/12/29 00:43:48;;;;;;;3.20;1.90;;;;;;;6.15;100.00;95511.47;4946172;28;20514;-87
2021/12/29 00:46:41;;;;;;;1.73;1.63;;;;;;;6.11;100.00;95498.75;4945316;28;20360;-88
2021/12/29 00:49:10;;;;;;;2.13;1.53;;;;;;;6.08;100.00;95495.47;4936023;29;20249;-86
2021/12/29 00:51:37;;;;;;;3.83;1.90;;;;;;;6.10;100.00;95516.69;4927125;29;20210;-87
2021/12/29 00:54:05;;;;;;;4.03;1.63;;;;;;;6.13;100.00;95534.16;4934919;28;20218;-86
2021/12/29 00:56:32;;;;;;;2.03;1.50;;;;;;;6.08;100.00;95543.69;4926337;29;20233;-88
2021/12/29 00:58:59;;;;;;;2.03;1.40;;;;;;;6.10;100.00;95556.06;4946698;28;20216;-86
2021/12/29 01:01:28;;;;;;;2.90;1.47;;;;;;;6.07;100.00;95531.34;4922653;29;20229;-87
2021/12/29 01:03:55;;;;;;;1.60;1.40;;;;;;;6.05;100.00;95544.13;4926579;29;20213;-87
2021/12/29 01:06:24;;;;;;;2.00;1.57;;;;;;;6.05;100.00;95554.84;4934809;28;20229;-87
2021/12/29 01:08:51;;;;;;;2.60;1.47;;;;;;;6.06;100.00;95556.50;4942595;28;20217;-87
2021/12/29 01:11:18;;;;;;;1.53;1.20;;;;;;;6.06;100.00;95553.00;4943725;28;20278;-86
2021/12/29 01:13:48;;;;;;;1.20;1.10;;;;;;;6.06;100.00;95555.66;4941776;28;20297;-88
2021/12/29 01:16:36;;;;;;;1.73;1.20;;;;;;;6.08;100.00;95550.91;4944710;28;20220;-86
2021/12/29 01:19:08;;;;;;;1.63;1.20;;;;;;;6.08;100.00;95541.03;4930342;29;20213;-87
2021/12/29 01:21:38;;;;;;;2.87;1.40;;;;;;;6.03;100.00;95554.28;4943995;29;20238;-86
2021/12/29 01:24:06;;;;;;;2.33;1.80;;;;;;;6.04;100.00;95555.06;4947382;28;20210;-86
2021/12/29 01:26:34;;;;;;;2.83;1.47;;;;;;;6.02;100.00;95549.94;4944205;28;20206;-86
2021/12/29 01:29:01;;;;;;;2.37;1.23;;;;;;;6.01;100.00;95558.22;4939614;28;20229;-87
2021/12/29 01:31:28;;;;;;;1.43;1.10;;;;;;;6.00;100.00;95578.00;4943279;28;20219;-86
2021/12/29 01:33:56;;;;;;;3.27;1.33;;;;;;;6.01;100.00;95585.00;4946174;28;20216;-87
2021/12/29 01:36:23;;;;;;;2.27;1.40;;;;;;;6.01;100.00;95588.50;4925522;29;20261;-86
2021/12/29 01:38:52;;;;;;;1.90;1.30;;;;;;;6.04;100.00;95587.22;4927116;29;20210;-87
2021/12/29 01:41:19;;;;;;;2.17;1.30;;;;;;;6.02;100.00;95592.81;4942292;29;20316;-86
2021/12/29 01:43:46;;;;;;;2.83;1.60;;;;;;;5.98;100.00;95596.97;4941853;28;20315;-86
2021/12/29 01:46:13;;;;;;;1.37;1.27;;;;;;;5.97;100.00;95589.16;4947809;28;20217;-87
2021/12/29 01:48:40;;;;;;;1.50;1.40;;;;;;;5.93;100.00;95594.16;4947274;28;20217;-86
2021/12/29 01:51:08;;;;;;;1.63;1.37;;;;;;;5.95;100.00;95589.41;4940876;28;20237;-87
2021/12/29 01:53:36;;;;;;;1.97;1.40;;;;;;;5.91;100.00;95590.03;4931049;29;20308;-87
2021/12/29 01:56:05;;;;;;;4.37;1.50;;;;;;;5.87;100.00;95603.00;4945724;28;20213;-87
2021/12/29 01:58:32;;;;;;;2.83;1.63;;;;;;;5.83;100.00;95595.63;4943614;28;20210;-87
2021/12/29 02:01:00;;;;;;;3.10;1.50;;;;;;;5.88;100.00;95607.34;4930511;29;20272;-87
2021/12/29 02:03:27;;;;;;;1.40;1.30;;;;;;;5.87;100.00;95615.59;4936940;28;20264;-87
2021/12/29 02:05:55;;;;;;;2.30;1.50;;;;;;;5.88;100.00;95602.00;4940903;28;20268;-86
2021/12/29 02:08:23;;;;;;;2.10;1.37;;;;;;;5.87;100.00;95600.31;4925220;28;20224;-87
2021/12/29 02:10:52;;;;;;;1.30;1.20;;;;;;;5.84;100.00;95606.13;4946874;28;20225;-87
2021/12/29 02:13:21;;;;;;;1.77;1.30;;;;;;;5.85;100.00;95598.94;4930752;28;20213;-88
2021/12/29 02:15:48;;;;;;;1.50;1.30;;;;;;;5.91;100.00;95612.28;4946286;28;20216;-88
2021/12/29 02:18:16;;;;;;;1.80;1.27;;;;;;;5.88;100.00;95602.00;4945433;28;20201;-87
2021/12/29 02:20:47;;;;;;;1.40;1.13;;;;;;;5.94;100.00;95606.50;4926422;29;20245;-88
2021/12/29 02:23:19;;;;;;;2.40;1.30;;;;;;;5.93;100.00;95604.88;4927884;29;20209;-87
2021/12/29 02:25:51;;;;;;;1.73;1.20;;;;;;;5.93;100.00;95615.56;4941327;28;20213;-87
2021/12/29 02:28:24;;;;;;;1.70;1.10;;;;;;;5.96;100.00;95644.59;4942611;28;20217;-86
2021/12/29 02:30:52;;;;;;;1.83;1.30;;;;;;;5.97;100.00;95654.28;4931288;29;20201;-88
2021/12/29 02:33:19;;;;;;;1.40;1.00;;;;;;;5.98;100.00;95653.25;4943319;28;20320;-88
2021/12/29 02:35:48;;;;;;;2.90;1.00;;;;;;;6.12;100.00;95669.22;4941047;28;20250;-86
2021/12/29 02:38:27;;;;;;;2.00;1.50;;;;;;;6.07;100.00;95659.97;4941252;28;20209;-87
2021/12/29 02:40:56;;;;;;;2.50;1.60;;;;;;;6.04;100.00;95638.13;4956047;28;20225;-88
2021/12/29 02:43:24;;;;;;;2.00;1.50;;;;;;;6.03;100.00;95658.78;4948425;28;20205;-87
2021/12/29 02:45:58;;;;;;;3.23;1.00;;;;;;;6.00;100.00;95664.56;4928508;29;20337;-86
2021/12/29 02:48:27;;;;;;;1.07;1.07;;;;;;;6.05;100.00;95650.50;4942507;28;20478;-86
2021/12/29 02:50:58;;;;;;;2.13;1.20;;;;;;;6.04;100.00;95633.59;4924148;28;20254;-87
2021/12/29 02:53:26;;;;;;;3.40;1.70;;;;;;;6.05;100.00;95635.25;4940043;29;20209;-87
2021/12/29 02:55:54;;;;;;;1.83;1.13;;;;;;;6.11;100.00;95665.72;4932511;28;20248;-87
2021/12/29 02:58:22;;;;;;;2.17;0.97;;;;;;;6.15;100.00;95676.81;4929224;29;20224;-87
2021/12/29 03:00:51;;;;;;;1.50;1.10;;;;;;;6.18;100.00;95681.75;4931948;28;20226;-87
2021/12/29 03:03:21;;;;;;;2.83;0.93;;;;;;;6.18;100.00;95684.44;4930809;29;20212;-87
2021/12/29 03:05:49;;;;;;;3.00;1.50;;;;;;;6.22;100.00;95683.75;4946060;28;20602;-86
2021/12/29 03:08:19;;;;;;;1.80;1.70;;;;;;;6.22;100.00;95686.44;4937319;28;20348;-87
2021/12/29 03:10:52;;;;;;;1.40;1.30;;;;;;;6.29;100.00;95684.53;4944695;28;20209;-87
2021/12/29 03:13:19;;;;;;;3.20;2.53;;;;;;;6.25;100.00;95685.19;4927365;29;20233;-86
2021/12/29 03:15:46;;;;;;;5.03;2.50;;;;;;;6.21;100.00;95690.16;4926938;29;20206;-87
2021/12/29 03:18:14;;;;;;;3.37;1.37;;;;;;;6.16;100.00;95697.22;4940117;28;20206;-88
2021/12/29 03:20:41;;;;;;;2.03;1.50;;;;;;;6.13;100.00;95689.59;4927479;29;20265;-87
2021/12/29 03:23:08;;;;;;;1.40;1.10;;;;;;;6.10;100.00;95687.38;4920536;29;20233;-87
2021/12/29 03:25:36;;;;;;;1.50;1.20;;;;;;;6.10;100.00;95712.34;4933188;29;20305;-87
2021/12/29 03:28:05;;;;;;;1.43;1.10;;;;;;;6.12;100.00;95704.06;4930596;28;20221;-87
2021/12/29 03:30:35;;;;;;;1.20;1.00;;;;;;;6.09;100.00;95694.59;4928603;29;20217;-87
2021/12/29 03:33:07;;;;;;;2.60;1.13;;;;;;;6.13;100.00;95701.16;4939993;28;20237;-87
2021/12/29 03:35:36;;;;;;;5.17;3.00;;;;;;;6.08;100.00;95704.50;4927045;29;20255;-87
2021/12/29 03:38:05;;;;;;;5.10;2.17;;;;;;;6.13;100.00;95705.69;4936943;29;20277;-86
2021/12/29 03:40:35;;;;;;;5.77;3.07;;;;;;;6.07;100.00;95716.25;4947232;28;20233;-87
2021/12/29 03:43:04;;;;;;;1.50;1.00;;;;;;;6.12;100.00;95709.44;4930180;29;20202;-87
2021/12/29 03:45:32;;;;;;;1.20;0.83;;;;;;;6.10;100.00;95695.44;4930479;29;20210;-86
2021/12/29 03:47:59;;;;;;;3.67;1.03;;;;;;;6.02;100.00;95689.31;4944028;28;20501;-87
2021/12/29 03:50:26;;;;;;;2.17;0.87;;;;;;;5.97;100.00;95686.44;4939509;29;20205;-86
2021/12/29 03:52:53;;;;;;;4.27;0.90;;;;;;;5.93;100.00;95689.78;4938390;28;20220;-88
2021/12/29 03:55:20;;;;;;;1.30;1.00;;;;;;;5.96;100.00;95689.31;4939540;29;20241;-87
2021/12/29 03:57:47;;;;;;;2.57;0.90;;;;;;;5.94;100.00;95692.25;4944792;28;20226;-87
2021/12/29 04:00:18;;;;;;;2.47;0.90;;;;;;;5.94;100.00;95694.09;4941347;28;20209;-88
2021/12/29 04:02:46;;;;;;;1.03;1.03;;;;;;;6.03;100.00;95701.66;4926778;29;20236;-87
2021/12/29 04:05:18;;;;;;;2.83;1.17;;;;;;;6.01;100.00;95694.88;4940411;28;20236;-86
2021/12/29 04:07:46;;;;;;;2.87;1.40;;;;;;;5.97;100.00;95702.50;4932506;28;20238;-87
2021/12/29 04:10:13;;;;;;;2.10;1.60;;;;;;;5.94;100.00;95713.69;4929342;29;20206;-87
2021/12/29 04:12:41;;;;;;;1.83;1.00;;;;;;;5.89;100.00;95713.50;4928936;28;20248;-87
2021/12/29 04:15:10;;;;;;;4.27;1.20;;;;;;;5.86;100.00;95721.94;4941548;28;20217;-87
2021/12/29 04:17:41;;;;;;;1.20;0.93;;;;;;;5.85;100.00;95733.69;4926767;28;20214;-87
2021/12/29 04:22:55;;;;;;;1.43;0.90;;;;;;;5.91;100.00;95724.81;4937503;29;20210;-87
2021/12/29 04:25:24;;;;;;;2.10;1.13;;;;;;;5.99;100.00;95724.56;4940518;28;20219;-87
2021/12/29 04:27:51;;;;;;;2.37;1.20;;;;;;;5.90;100.00;95720.50;4927010;29;20216;-87
2021/12/29 04:30:19;;;;;;;2.70;1.53;;;;;;;5.92;100.00;95726.47;4931786;28;20202;-86
2021/12/29 04:32:48;;;;;;;5.40;3.20;;;;;;;5.93;100.00;95729.97;4926433;29;20209;-87
2021/12/29 04:35:15;;;;;;;2.33;1.50;;;;;;;5.87;100.00;95731.59;4932347;29;20221;-86
2021/12/29 04:37:43;;;;;;;1.97;1.17;;;;;;;5.84;100.00;95713.31;4942974;28;20269;-88
2021/12/29 04:40:10;;;;;;;3.97;1.17;;;;;;;5.81;100.00;95745.88;4950007;28;20213;-87
2021/12/29 04:42:38;;;;;;;2.77;1.07;;;;;;;5.81;100.00;95756.59;4950419;28;20291;-86
2021/12/29 04:45:07;;;;;;;5.33;1.20;;;;;;;5.82;100.00;95763.59;4949264;28;20273;-86
2021/12/29 04:47:38;;;;;;;2.70;1.30;;;;;;;5.88;100.00;95746.69;4947960;28;20206;-87
2021/12/29 04:50:18;;;;;;;1.83;0.93;;;;;;;5.91;100.00;95756.16;4932199;29;20226;-88
2021/12/29 04:52:45;;;;;;;5.97;1.30;;;;;;;5.83;100.00;95753.69;4939130;28;20204;-87
2021/12/29 04:55:12;;;;;;;2.40;1.10;;;;;;;5.89;100.00;95767.06;4926710;29;20206;-87
2021/12/29 04:57:39;;;;;;;5.27;1.30;;;;;;;5.86;100.00;95774.72;4944151;28;20213;-87
2021/12/29 05:00:08;;;;;;;2.03;1.00;;;;;;;5.87;100.00;95768.31;4941249;28;20296;-87
2021/12/29 05:02:36;;;;;;;2.83;1.50;;;;;;;5.81;100.00;95747.72;4941222;28;20234;-88
2021/12/29 05:05:17;;;;;;;1.90;1.50;;;;;;;5.81;100.00;95750.41;4923222;29;20210;-86
2021/12/29 05:10:31;;;;;;;2.00;1.37;;;;;;;5.77;100.00;95760.75;4936909;28;20214;-86
2021/12/29 05:12:59;;;;;;;2.03;1.10;;;;;;;5.78;100.00;95773.09;4928432;29;20229;-87
2021/12/29 05:15:26;;;;;;;2.10;1.20;;;;;;;5.75;100.00;95778.88;4929326;29;20207;-85
2021/12/29 05:17:54;;;;;;;0.90;0.90;;;;;;;5.70;100.00;95773.31;4935563;28;20219;-86
2021/12/29 05:20:22;;;;;;;1.70;1.10;;;;;;;5.66;100.00;95777.47;4921869;29;20202;-86
2021/12/29 05:22:50;;;;;;;2.40;1.10;;;;;;;5.68;100.00;95765.53;4917709;29;20230;-86
2021/12/29 05:25:17;;;;;;;3.03;1.10;;;;;;;5.74;100.00;95777.22;4924945;29;20333;-86
2021/12/29 05:27:44;;;;;;;2.23;1.20;;;;;;;5.68;100.00;95783.47;4929514;29;20228;-87
2021/12/29 05:30:12;;;;;;;1.40;1.00;;;;;;;5.71;100.00;95783.84;4928434;29;20203;-87
2021/12/29 05:32:40;;;;;;;4.83;1.30;;;;;;;5.78;100.00;95786.50;4920574;29;20226;-87
2021/12/29 05:35:08;;;;;;;3.73;1.10;;;;;;;5.84;100.00;95782.97;4942476;28;20290;-86
2021/12/29 05:37:35;;;;;;;5.50;1.40;;;;;;;5.81;100.00;95788.72;4927680;29;20217;-86
2021/12/29 05:40:04;;;;;;;2.00;1.23;;;;;;;5.78;100.00;95773.09;4943994;28;20217;-86
2021/12/29 05:42:33;;;;;;;5.63;1.00;;;;;;;5.83;100.00;95783.16;4931966;29;20230;-86
2021/12/29 05:45:01;;;;;;;3.20;1.27;;;;;;;5.86;100.00;95794.28;4924958;29;20214;-86
2021/12/29 05:47:28;;;;;;;1.03;0.90;;;;;;;5.81;100.00;95788.72;4927116;29;20206;-86
2021/12/29 05:49:55;;;;;;;6.17;1.50;;;;;;;5.79;100.00;95793.47;4930400;29;20214;-87
2021/12/29 05:52:23;;;;;;;5.97;1.90;;;;;;;5.76;100.00;95790.41;4925385;29;20218;-86
2021/12/29 05:54:50;;;;;;;4.13;1.50;;;;;;;5.76;100.00;95801.13;4913157;29;20294;-85
2021/12/29 05:57:18;;;;;;;3.00;1.30;;;;;;;5.82;100.00;95806.47;4941968;28;20239;-86
2021/12/29 05:59:45;;;;;;;8.67;1.57;;;;;;;5.83;100.00;95813.47;4915686;29;20286;-86
2021/12/29 06:02:12;;;;;;;2.47;1.30;;;;;;;5.77;100.00;95810.81;4928516;29;20226;-86
2021/12/29 06:04:39;;;;;;;1.47;1.10;;;;;;;5.82;100.00;95837.78;4927372;29;20221;-86
2021/12/29 06:07:07;;;;;;;2.47;1.23;;;;;;;5.86;100.00;95833.66;4920143;29;20316;-86
2021/12/29 06:09:35;;;;;;;2.77;1.37;;;;;;;5.81;100.00;95814.69;4928519;29;20199;-86
2021/12/29 06:12:02;;;;;;;2.27;1.47;;;;;;;5.81;100.00;95809.34;4926650;29;20206;-85
2021/12/29 06:14:30;;;;;;;4.37;1.50;;;;;;;5.85;100.00;95821.28;4927889;29;20206;-84
2021/12/29 06:16:57;;;;;;;5.03;2.97;;;;;;;5.87;100.00;95846.03;4942984;29;20214;-83
2021/12/29 06:19:24;;;;;;;4.53;2.00;;;;;;;5.87;100.00;95830.75;4926833;29;20234;-84
2021/12/29 06:21:51;;;;;;;2.27;1.27;;;;;;;5.91;100.00;95826.63;4934537;28;20231;-84
2021/12/29 06:24:18;;;;;;;2.80;1.40;;;;;;;5.94;100.00;95828.91;4945308;29;20210;-86
2021/12/29 06:26:45;;;;;;;4.00;1.37;;;;;;;5.93;100.00;95840.66;4924276;29;20235;-84
2021/12/29 06:29:12;;;;;;;2.70;1.13;;;;;;;5.89;100.00;95834.06;4925331;28;20218;-86
2021/12/29 06:31:44;;;;;;;1.90;1.50;;;;;;;5.88;100.00;95842.31;4925502;29;20224;-86
2021/12/29 06:34:12;;;;;;;1.37;1.20;;;;;;;5.80;100.00;95834.47;4924157;29;20206;-87
2021/12/29 06:36:40;;;;;;;2.53;1.10;;;;;;;5.80;100.00;95835.31;4925699;29;20232;-87
2021/12/29 06:39:07;;;;;;;4.33;1.40;;;;;;;5.73;100.00;95818.44;4926534;29;20233;-87
2021/12/29 06:41:35;;;;;;;2.30;1.30;;;;;;;5.70;100.00;95834.94;4918251;29;20242;-86
2021/12/29 06:44:02;;;;;;;2.83;2.03;;;;;;;5.68;100.00;95837.03;4929487;29;20225;-86
2021/12/29 06:46:29;;;;;;;2.80;1.50;;;;;;;5.79;100.00;95841.69;4942403;28;20218;-87
2021/12/29 06:48:58;;;;;;;2.70;1.37;;;;;;;5.81;100.00;95836.97;4939726;29;20210;-86
2021/12/29 06:51:25;;;;;;;2.60;1.20;;;;;;;5.79;100.00;95828.31;4921987;29;20240;-87
2021/12/29 06:53:52;;;;;;;1.30;0.90;;;;;;;5.77;100.00;95830.41;4938213;29;20222;-86
2021/12/29 06:56:20;;;;;;;2.57;1.30;;;;;;;5.87;100.00;95836.09;4928732;29;20207;-86
2021/12/29 06:58:47;;;;;;;2.03;1.20;;;;;;;5.86;100.00;95822.94;4927209;29;20254;-86
2021/12/29 07:01:16;;;;;;;4.80;1.20;;;;;;;5.85;100.00;95830.16;4942327;28;20223;-85
2021/12/29 07:03:44;;;;;;;2.20;1.13;;;;;;;5.89;100.00;95839.41;4919788;29;20210;-86
2021/12/29 07:06:12;;;;;;;1.43;1.10;;;;;;;5.92;100.00;95849.72;4936718;29;20258;-85
2021/12/29 07:08:40;;;;;;;2.20;1.00;;;;;;;5.98;100.00;95843.50;4924022;29;20215;-85
2021/12/29 07:11:07;;;;;;;1.10;0.90;;;;;;;6.07;100.00;95850.25;4943540;28;20210;-86
2021/12/29 07:13:34;;;;;;;6.83;1.10;;;;;;;6.06;100.00;95848.63;4921900;29;20218;-86
2021/12/29 07:16:01;;;;;;;1.00;0.97;;;;;;;6.00;100.00;95841.44;4923024;29;20206;-86
2021/12/29 07:18:28;;;;;;;1.10;0.90;;;;;;;6.12;100.00;95854.19;4937345;29;20264;-85
2021/12/29 07:20:58;;;;;;;4.03;1.80;;;;;;;6.07;100.00;95866.34;4922516;29;20237;-86
2021/12/29 07:23:27;;;;;;;3.57;1.37;;;;;;;6.08;100.00;95876.03;4917336;29;20321;-85
2021/12/29 07:25:54;;;;;;;3.27;1.83;;;;;;;6.14;100.00;95878.88;4923138;29;20206;-86
2021/12/29 07:28:21;;;;;;;4.30;1.73;;;;;;;6.10;100.00;95893.75;4926426;29;20198;-87
2021/12/29 07:30:48;;;;;;;1.57;1.47;;;;;;;6.04;100.00;95896.25;4939542;28;20297;-85
2021/12/29 07:33:15;;;;;;;2.67;1.77;;;;;;;6.03;100.00;95896.47;4920485;29;20305;-86
2021/12/29 07:35:42;;;;;;;2.67;1.80;;;;;;;6.01;100.00;95883.28;4922235;29;20286;-85
2021/12/29 07:38:09;;;;;;;2.17;1.90;;;;;;;6.00;100.00;95888.84;4937826;28;20308;-85
2021/12/29 07:40:38;;;;;;;1.77;1.40;;;;;;;5.96;100.00;95895.66;4919404;29;20440;-86
2021/12/29 07:43:05;;;;;;;1.53;1.33;;;;;;;5.97;100.00;95890.09;4926688;29;20435;-87
2021/12/29 07:45:32;;;;;;;2.80;1.40;;;;;;;6.00;100.00;95897.72;4920054;29;20206;-86
2021/12/29 07:48:00;;;;;;;2.87;1.40;;;;;;;5.99;100.00;95898.75;4921208;29;20222;-86
2021/12/29 07:50:27;;;;;;;4.70;1.80;;;;;;;5.95;100.00;95897.53;4921618;29;20234;-86
2021/12/29 07:52:54;;;;;;;2.20;1.70;;;;;;;5.93;100.00;95902.28;4936979;29;20242;-86
2021/12/29 07:55:21;;;;;;;3.87;1.67;;;;;;;6.00;100.00;95911.13;4934502;28;20222;-87
2021/12/29 07:57:50;;;;;;;4.20;1.60;;;;;;;6.01;100.00;95914.63;4920936;29;20245;-86
2021/12/29 08:00:17;;;;;;;2.00;1.40;;;;;;;6.02;100.00;95909.06;4940463;28;20206;-86
2021/12/29 08:02:47;;;;;;;2.93;1.70;;;;;;;6.13;100.00;95920.94;4921627;29;20250;-86
2021/12/29 08:05:15;;;;;;;4.50;2.90;;;;;;;6.12;100.00;95918.50;4910719;29;20259;-88
2021/12/29 08:07:42;;;;;;;6.00;2.10;;;;;;;6.18;100.00;95928.38;4936756;29;20238;-86
2021/12/29 08:10:10;;;;;;;2.77;1.67;;;;;;;6.25;100.00;95937.19;4914415;29;20215;-85
2021/12/29 08:12:37;;;;;;;2.37;1.57;;;;;;;6.21;100.00;95933.31;4918640;29;20270;-86
2021/12/29 08:15:07;;;;;;;3.53;1.40;;;;;;;6.22;100.00;95951.00;4918309;29;20199;-84
2021/12/29 08:17:34;;;;;;;2.83;1.67;;;;;;;6.23;100.00;95945.44;4920989;29;20210;-84
2021/12/29 08:20:01;;;;;;;4.13;1.50;;;;;;;6.24;100.00;95965.88;4921008;28;20202;-85
2021/12/29 08:22:28;;;;;;;2.63;1.43;;;;;;;6.25;100.00;95974.72;4924447;29;20230;-84
2021/12/29 08:24:57;;;;;;;2.90;1.70;;;;;;;6.19;100.00;95975.59;4917915;29;20297;-84
2021/12/29 08:27:25;;;;;;;3.10;1.83;;;;;;;6.22;100.00;95981.31;4921636;29;20285;-82
2021/12/29 08:29:52;;;;;;;2.37;1.50;;;;;;;6.27;100.00;95994.13;4919877;29;20214;-83
2021/12/29 08:32:21;;;;;;;2.50;1.90;;;;;;;6.24;100.00;95995.34;4935053;28;20538;-82
2021/12/29 08:34:48;;;;;;;3.30;2.07;;;;;;;6.21;100.00;95995.75;4924298;29;20214;-84
2021/12/29 08:37:16;;;;;;;6.50;2.43;;;;;;;6.22;100.00;96002.78;4922288;29;20262;-83
2021/12/29 08:39:44;;;;;;;6.73;2.47;;;;;;;6.24;100.00;96015.97;4916207;29;20210;-82
2021/12/29 08:42:12;;;;;;;6.80;2.30;;;;;;;6.26;100.00;96016.59;4918729;29;20226;-83
2021/12/29 08:44:39;;;;;;;4.87;2.23;;;;;;;6.33;100.00;96023.56;4922103;29;20214;-84
2021/12/29 08:47:08;;;;;;;6.27;2.23;;;;;;;6.37;100.00;96040.06;4917654;29;20214;-83
2021/12/29 08:49:37;;;;;;;4.03;2.27;;;;;;;6.38;100.00;96057.81;4937201;29;20218;-84
2021/12/29 08:52:05;;;;;;;4.33;2.00;;;;;;;6.39;100.00;96062.13;4934293;28;20206;-83
2021/12/29 08:54:34;;;;;;;3.83;2.97;;;;;;;6.42;100.00;96059.84;4936814;28;20215;-83
2021/12/29 08:57:01;;;;;;;2.47;1.10;;;;;;;6.45;100.00;96070.16;4919396;29;20221;-84
2021/12/29 08:59:28;;;;;;;1.73;1.20;;;;;;;6.43;100.00;96076.78;4933887;29;20234;-84
2021/12/29 09:01:55;;;;;;;1.43;1.20;;;;;;;6.47;100.00;96075.31;4919312;29;20203;-83
2021/12/29 09:04:22;;;;;;;1.80;0.90;;;;;;;6.43;100.00;96072.22;4936714;29;20210;-84
2021/12/29 09:06:52;;;;;;;1.67;0.90;;;;;;;6.50;100.00;96085.63;4922757;29;20239;-83
2021/12/29 09:09:22;;;;;;;2.37;1.00;;;;;;;6.45;100.00;96088.13;4928999;28;20305;-86
2021/12/29 09:11:50;;;;;;;2.30;1.43;;;;;;;6.43;100.00;96090.19;4935294;28;20214;-83
2021/12/29 09:14:44;;;;;;;2.20;1.23;;;;;;;6.39;100.00;96086.25;4923830;29;20209;-86
2021/12/29 09:17:59;;;;;;;2.80;1.53;;;;;;;6.40;100.00;96090.59;4945882;28;20228;-88
2021/12/29 09:20:32;;;;;;;1.90;1.10;;;;;;;6.53;100.00;96106.66;4936069;28;20209;-85
2021/12/29 09:23:04;;;;;;;0.70;0.70;;;;;;;6.54;100.00;96100.25;4958220;28;20428;-84
2021/12/29 09:25:34;;;;;;;1.13;0.80;;;;;;;6.43;100.00;96104.41;4926883;29;20262;-85
2021/12/29 09:28:02;;;;;;;0.60;0.60;;;;;;;6.44;100.00;96105.25;4942063;28;20210;-83
2021/12/29 09:30:33;;;;;;;1.10;0.80;;;;;;;6.40;100.00;96098.63;4938268;28;20210;-84
2021/12/29 09:33:00;;;;;;;1.07;0.70;;;;;;;6.36;100.00;96113.50;4930084;28;20233;-85
2021/12/29 09:35:31;;;;;;;1.83;1.50;;;;;;;6.36;100.00;96125.06;4948407;28;20232;-86
2021/12/29 09:38:00;;;;;;;4.47;1.40;;;;;;;6.35;100.00;96130.63;4936673;29;20254;-83
2021/12/29 09:40:28;;;;;;;1.73;1.10;;;;;;;6.35;100.00;96133.31;4930093;29;20221;-84
2021/12/29 09:46:24;;;;;;;3.13;1.40;;;;;;;6.37;100.00;96134.75;4911263;29;20223;-85
2021/12/29 09:49:06;;;;;;;3.73;2.13;;;;;;;6.32;100.00;96136.41;4932461;28;20300;-85
2021/12/29 09:51:38;;;;;;;4.93;2.90;;;;;;;6.28;100.00;96121.78;4929040;28;20280;-85
2021/12/29 09:54:07;;;;;;;1.93;1.73;;;;;;;6.30;100.00;96125.88;4944340;28;20213;-86
2021/12/29 09:56:38;;;;;;;3.80;1.43;;;;;;;6.28;100.00;96119.94;4926788;28;20223;-87
2021/12/29 09:59:06;;;;;;;3.50;1.30;;;;;;;6.27;100.00;96120.13;4943912;28;20206;-86
2021/12/29 10:01:33;;;;;;;3.60;1.57;;;;;;;6.28;100.00;96127.16;4940522;28;20213;-87
2021/12/29 10:04:01;;;;;;;1.37;1.10;;;;;;;6.30;100.00;96127.72;4928154;28;20226;-87
2021/12/29 10:06:28;;;;;;;1.97;1.63;;;;;;;6.19;100.00;96110.44;4943308;28;20292;-86
2021/12/29 10:08:55;;;;;;;3.30;1.60;;;;;;;6.23;100.00;96122.41;4931687;29;20214;-87
2021/12/29 10:11:30;;;;;;;2.23;1.80;;;;;;;6.15;100.00;96111.06;4944505;28;20308;-86
2021/12/29 10:13:58;;;;;;;6.37;2.83;;;;;;;6.13;100.00;96097.84;4941383;28;20278;-87
2021/12/29 10:16:29;;;;;;;1.13;1.00;;;;;;;6.14;100.00;96098.69;4940409;28;20210;-86
2021/12/29 10:19:01;;;;;;;4.10;1.83;;;;;;;6.18;100.00;96102.63;4922747;29;20209;-86
2021/12/29 10:21:33;;;;;;;2.60;1.90;;;;;;;6.18;100.00;96105.28;4930137;29;20240;-87
2021/12/29 10:24:01;;;;;;;2.20;1.70;;;;;;;6.23;100.00;96106.31;4931827;29;20226;-86
2021/12/29 10:26:34;;;;;;;2.63;1.40;;;;;;;6.20;100.00;96113.97;4951362;28;20209;-85
2021/12/29 10:29:07;;;;;;;2.33;1.17;;;;;;;6.19;100.00;96104.25;4934095;29;20300;-86
2021/12/29 10:31:39;;;;;;;6.03;2.23;;;;;;;6.18;100.00;96099.94;4949623;28;20296;-85
2021/12/29 10:34:11;;;;;;;2.50;1.67;;;;;;;6.14;100.00;96086.09;4945107;28;20256;-86
2021/12/29 10:36:42;;;;;;;4.30;1.20;;;;;;;6.10;100.00;96082.22;4948887;28;20250;-86
2021/12/29 10:39:13;;;;;;;3.40;1.67;;;;;;;6.09;100.00;96083.25;4949506;28;20217;-88
2021/12/29 10:41:51;;;;;;;2.63;1.37;;;;;;;6.07;100.00;96082.63;4946230;28;20304;-86
2021/12/29 10:44:26;;;;;;;3.87;1.50;;;;;;;6.07;100.00;96087.97;4943700;28;20225;-87
2021/12/29 10:46:56;;;;;;;1.03;0.90;;;;;;;6.10;100.00;96076.03;4922313;29;20217;-88
2021/12/29 10:49:25;;;;;;;1.70;1.60;;;;;;;6.04;100.00;96073.13;4942688;28;20209;-87
2021/12/29 10:51:53;;;;;;;4.70;1.67;;;;;;;6.03;100.00;96082.22;4942923;28;20205;-87
2021/12/29 10:54:24;;;;;;;2.23;1.20;;;;;;;5.99;100.00;96075.63;4945529;28;20205;-82
2021/12/29 10:57:02;;;;;;;3.33;1.30;;;;;;;5.99;100.00;96067.59;4945300;28;20241;-81
2021/12/29 10:59:31;;;;;;;3.67;2.27;;;;;;;5.92;100.00;96069.44;4924118;28;20300;-82
2021/12/29 11:01:59;;;;;;;1.43;1.10;;;;;;;5.95;100.00;96081.63;4922393;28;20207;-81
2021/12/29 11:04:27;;;;;;;2.23;1.40;;;;;;;5.94;100.00;96079.97;4943244;28;20228;-82
2021/12/29 11:06:59;;;;;;;1.80;1.40;;;;;;;5.89;100.00;96069.03;4942415;28;20268;-81
2021/12/29 11:09:31;;;;;;;1.70;1.30;;;;;;;5.87;100.00;96077.25;4930705;28;20202;-82
2021/12/29 11:12:01;;;;;;;1.30;1.20;;;;;;;5.91;100.00;96089.25;4947689;28;20210;-83
2021/12/29 11:14:31;;;;;;;3.97;2.03;;;;;;;5.99;100.00;96086.34;4933292;28;20272;-82
2021/12/29 11:17:06;;;;;;;4.23;2.00;;;;;;;5.96;100.00;96078.72;4937516;28;20341;-82
2021/12/29 11:19:35;;;;;;;3.20;2.30;;;;;;;5.90;100.00;96087.59;4935134;29;20230;-80
2021/12/29 11:22:12;;;;;;;2.47;2.10;;;;;;;5.73;100.00;96086.31;4928017;28;20260;-82
2021/12/29 11:24:42;;;;;;;1.40;1.10;;;;;;;5.58;100.00;96077.69;4940645;28;20233;-81
2021/12/29 11:27:13;;;;;;;1.20;1.10;;;;;;;5.52;100.00;96073.16;4938636;28;20209;-81
2021/12/29 11:29:52;;;;;;;1.10;0.97;;;;;;;5.46;100.00;96079.31;4946838;28;20235;-82
2021/12/29 11:32:26;;;;;;;1.50;1.03;;;;;;;5.42;100.00;96080.75;4960827;28;20209;-82
2021/12/29 11:35:02;;;;;;;4.27;1.57;;;;;;;5.35;100.00;96085.28;4956272;28;20276;-83
2021/12/29 11:37:29;;;;;;;0.97;0.90;;;;;;;5.30;100.00;96091.25;4954855;28;20568;-82
2021/12/29 11:39:57;;;;;;;2.27;1.60;;;;;;;5.24;100.00;96068.78;4961948;28;20244;-82
2021/12/29 11:42:26;;;;;;;4.63;2.60;;;;;;;5.22;100.00;96072.69;4967143;28;20324;-82
2021/12/29 11:44:53;;;;;;;3.00;2.13;;;;;;;5.18;100.00;96083.00;4960591;28;20228;-82
2021/12/29 11:47:21;;;;;;;3.50;1.90;;;;;;;5.10;100.00;96080.50;4975308;28;20197;-82
2021/12/29 11:49:48;;;;;;;1.70;1.30;;;;;;;5.09;100.00;96078.88;4963482;28;20205;-82
2021/12/29 11:52:29;;;;;;;3.23;1.40;;;;;;;4.98;100.00;96068.75;4953310;28;20220;-82